Time;durP1;ratioP1;P1;durP2;ratioP2;P2;SDS_P1;SDS_P2;PMS_P1;PMS_P2;Temp;Humidity;BMP_temperature;BMP_pressure;BME280_temperature;BME280_humidity;BME280_pressure;Samples;Min_cycle;Max_cycle;Signal;HPM_P1;HPM_P2
2022/01/15 00:00:34;;;;;;;21.42;11.20;;;;;;;;;;5103460;28;20059;-64
2022/01/15 00:03:00;;;;;;;23.75;13.85;;;;;;;;;;5103216;28;20051;-64
2022/01/15 00:05:26;;;;;;;20.27;12.57;;;;;;;;;;5069854;28;20051;-64
2022/01/15 00:07:52;;;;;;;18.30;9.02;;;;;;;;;;5070530;28;20036;-64
2022/01/15 00:10:21;;;;;;;14.23;7.82;;;;;;;;;;5103029;28;20048;-64
2022/01/15 00:12:48;;;;;;;12.35;6.63;;;;;;;;;;5069068;28;20040;-64
2022/01/15 00:15:28;;;;;;;12.07;6.97;;;;;;;;;;5070390;28;20037;-64
2022/01/15 00:18:00;;;;;;;12.73;6.80;;;;;;;;;;5070280;28;20040;-64
2022/01/15 00:20:28;;;;;;;12.48;6.43;;;;;;;;;;5069902;28;20470;-64
2022/01/15 00:22:55;;;;;;;10.75;5.75;;;;;;;;;;5070493;28;20045;-64
2022/01/15 00:25:21;;;;;;;13.95;6.82;;;;;;;;;;5031939;28;1095007;-64
2022/01/15 00:27:48;;;;;;;11.90;6.55;;;;;;;;;;5070786;28;20113;-64
2022/01/15 00:30:14;;;;;;;11.00;6.22;;;;;;;;;;5071357;28;20041;-64
2022/01/15 00:32:40;;;;;;;11.65;6.80;;;;;;;;;;5071162;28;20048;-64
2022/01/15 00:35:08;;;;;;;12.82;7.00;;;;;;;;;;5070478;28;20817;-64
2022/01/15 00:37:34;;;;;;;13.20;7.28;;;;;;;;;;5071292;28;20501;-64
2022/01/15 00:40:01;;;;;;;15.73;7.40;;;;;;;;;;5071281;28;20040;-64
2022/01/15 00:42:28;;;;;;;10.77;6.40;;;;;;;;;;5070408;28;20072;-64
2022/01/15 00:44:56;;;;;;;10.32;6.65;;;;;;;;;;5071068;28;20118;-64
2022/01/15 00:47:22;;;;;;;12.48;6.57;;;;;;;;;;5071290;28;20067;-64
2022/01/15 00:49:48;;;;;;;12.55;6.30;;;;;;;;;;5069487;28;20051;-64
2022/01/15 00:52:14;;;;;;;11.73;6.45;;;;;;;;;;5071189;28;20051;-64
2022/01/15 00:54:41;;;;;;;13.13;6.93;;;;;;;;;;5071069;28;20123;-64
2022/01/15 00:57:07;;;;;;;10.57;6.00;;;;;;;;;;5070562;28;20090;-64
2022/01/15 00:59:33;;;;;;;11.20;5.68;;;;;;;;;;5070683;28;20040;-64
2022/01/15 01:01:59;;;;;;;10.48;6.30;;;;;;;;;;5071234;28;20119;-64
2022/01/15 01:04:25;;;;;;;13.38;6.40;;;;;;;;;;5070973;28;20452;-64
2022/01/15 01:06:51;;;;;;;12.13;6.43;;;;;;;;;;5069178;28;20125;-64
2022/01/15 01:09:17;;;;;;;9.48;6.32;;;;;;;;;;5071014;28;20044;-64
2022/01/15 01:11:51;;;;;;;11.32;6.30;;;;;;;;;;5069775;28;20071;-64
2022/01/15 01:25:16;;;;;;;10.98;6.93;;;;;;;;;;5073786;28;20159;-64
2022/01/15 01:27:47;;;;;;;14.32;6.93;;;;;;;;;;5106238;28;20072;-64
2022/01/15 01:30:21;;;;;;;11.70;6.55;;;;;;;;;;5074307;28;20546;-64
2022/01/15 01:35:27;;;;;;;12.32;7.85;;;;;;;;;;5073697;28;20055;-64
2022/01/15 01:37:55;;;;;;;12.88;7.43;;;;;;;;;;5074155;28;20044;-64
2022/01/15 01:40:25;;;;;;;14.40;7.68;;;;;;;;;;5074130;28;20083;-64
2022/01/15 01:42:58;;;;;;;13.90;7.38;;;;;;;;;;5073042;28;20049;-64
2022/01/15 01:45:25;;;;;;;12.68;6.93;;;;;;;;;;5074092;28;20040;-64
2022/01/15 01:47:51;;;;;;;13.82;7.70;;;;;;;;;;5073813;28;20037;-64
2022/01/15 01:50:19;;;;;;;15.05;7.45;;;;;;;;;;5073263;28;20484;-64
2022/01/15 01:52:47;;;;;;;14.35;7.18;;;;;;;;;;5073979;28;20178;-64
2022/01/15 01:55:13;;;;;;;10.32;6.53;;;;;;;;;;5073506;28;20076;-64
2022/01/15 01:57:40;;;;;;;11.23;6.72;;;;;;;;;;5072938;28;20041;-64
2022/01/15 02:00:07;;;;;;;12.70;7.30;;;;;;;;;;5073752;28;20033;-64
2022/01/15 02:02:33;;;;;;;14.30;7.18;;;;;;;;;;5073811;28;20052;-64
2022/01/15 02:04:59;;;;;;;13.98;7.43;;;;;;;;;;5072970;28;20094;-64
2022/01/15 02:07:26;;;;;;;11.93;7.00;;;;;;;;;;5073550;28;20403;-64
2022/01/15 02:09:53;;;;;;;10.98;7.03;;;;;;;;;;5073747;28;20047;-64
2022/01/15 02:12:19;;;;;;;11.82;6.78;;;;;;;;;;5073105;28;20132;-64
2022/01/15 02:14:45;;;;;;;16.55;7.38;;;;;;;;;;5073551;28;20380;-64
2022/01/15 02:17:12;;;;;;;11.15;6.85;;;;;;;;;;5106144;28;20070;-64
2022/01/15 02:19:56;;;;;;;10.90;6.25;;;;;;;;;;5105201;28;20055;-64
2022/01/15 02:25:07;;;;;;;11.18;6.85;;;;;;;;;;5105935;28;20506;-64
2022/01/15 02:27:34;;;;;;;11.32;6.25;;;;;;;;;;5072397;28;20093;-64
2022/01/15 02:30:03;;;;;;;13.38;6.80;;;;;;;;;;5073334;28;20056;-64
2022/01/15 02:32:33;;;;;;;12.82;6.50;;;;;;;;;;5071701;28;20040;-64
2022/01/15 02:35:01;;;;;;;11.35;7.20;;;;;;;;;;5070182;28;20049;-64
2022/01/15 02:37:28;;;;;;;10.35;6.30;;;;;;;;;;5073064;28;20036;-64
2022/01/15 02:39:55;;;;;;;12.20;6.78;;;;;;;;;;5073058;28;20040;-64
2022/01/15 02:42:23;;;;;;;10.80;6.10;;;;;;;;;;5072285;28;20044;-64
2022/01/15 02:44:49;;;;;;;9.90;6.25;;;;;;;;;;5072473;28;20044;-64
2022/01/15 02:49:59;;;;;;;13.30;6.63;;;;;;;;;;5072167;28;20040;-64
2022/01/15 02:52:25;;;;;;;8.73;5.28;;;;;;;;;;5071289;28;20044;-64
2022/01/15 02:54:51;;;;;;;11.23;5.53;;;;;;;;;;5072671;28;20037;-64
2022/01/15 02:57:17;;;;;;;10.57;5.93;;;;;;;;;;5071993;28;20043;-64
2022/01/15 02:59:45;;;;;;;12.30;6.28;;;;;;;;;;5072736;28;20126;-64
2022/01/15 03:02:11;;;;;;;9.63;5.82;;;;;;;;;;5072388;28;20123;-64
2022/01/15 03:04:37;;;;;;;13.13;6.15;;;;;;;;;;5071719;28;20072;-64
2022/01/15 03:07:05;;;;;;;11.38;6.15;;;;;;;;;;5072054;28;20040;-64
2022/01/15 03:09:31;;;;;;;9.48;5.70;;;;;;;;;;5070817;28;20048;-64
2022/01/15 03:12:02;;;;;;;10.27;5.85;;;;;;;;;;5070167;28;20047;-64
2022/01/15 03:14:31;;;;;;;9.98;6.07;;;;;;;;;;5071001;28;20052;-64
2022/01/15 03:16:57;;;;;;;9.13;5.68;;;;;;;;;;5072230;28;20686;-64
2022/01/15 03:19:23;;;;;;;10.30;5.60;;;;;;;;;;5070324;28;20055;-64
2022/01/15 03:21:49;;;;;;;10.52;5.40;;;;;;;;;;5072321;28;20050;-64
2022/01/15 03:24:15;;;;;;;10.77;5.47;;;;;;;;;;5071941;28;20127;-64
2022/01/15 03:26:41;;;;;;;11.93;6.20;;;;;;;;;;5071259;28;20132;-64
2022/01/15 03:29:07;;;;;;;11.40;5.82;;;;;;;;;;5072109;28;20140;-64
2022/01/15 03:31:33;;;;;;;9.68;6.28;;;;;;;;;;5104615;28;20051;-64
2022/01/15 03:33:59;;;;;;;10.32;5.05;;;;;;;;;;5071482;28;20068;-64
2022/01/15 03:36:25;;;;;;;11.80;5.43;;;;;;;;;;5072055;28;20348;-64
2022/01/15 03:38:51;;;;;;;9.90;5.60;;;;;;;;;;5104181;28;20044;-64
2022/01/15 03:41:17;;;;;;;9.98;5.30;;;;;;;;;;5104070;28;20060;-64
2022/01/15 03:43:43;;;;;;;9.45;5.07;;;;;;;;;;5071821;28;20439;-64
2022/01/15 03:46:10;;;;;;;11.38;5.75;;;;;;;;;;5071639;28;20116;-64
2022/01/15 03:48:36;;;;;;;9.90;5.45;;;;;;;;;;5070922;28;20043;-64
2022/01/15 03:51:03;;;;;;;8.30;5.25;;;;;;;;;;5071872;28;20135;-64
2022/01/15 03:53:29;;;;;;;8.52;5.43;;;;;;;;;;5104123;28;20649;-64
2022/01/15 03:55:55;;;;;;;9.82;5.10;;;;;;;;;;5103441;28;20120;-64
2022/01/15 03:58:21;;;;;;;8.77;4.55;;;;;;;;;;5071676;28;20059;-64
2022/01/15 04:00:47;;;;;;;7.97;4.63;;;;;;;;;;5071689;28;20394;-64
2022/01/15 04:03:13;;;;;;;9.88;5.00;;;;;;;;;;5070891;28;20043;-64
2022/01/15 04:05:40;;;;;;;11.77;4.82;;;;;;;;;;5071358;28;20036;-64
2022/01/15 04:08:06;;;;;;;6.63;4.07;;;;;;;;;;5071200;28;20090;-64
2022/01/15 04:10:32;;;;;;;7.90;4.65;;;;;;;;;;5070919;28;20472;-64
2022/01/15 04:12:58;;;;;;;9.43;4.63;;;;;;;;;;5103973;28;20040;-64
2022/01/15 04:15:25;;;;;;;7.93;4.45;;;;;;;;;;5104014;28;20498;-64
2022/01/15 04:17:51;;;;;;;9.18;5.20;;;;;;;;;;5070770;28;20097;-64
2022/01/15 04:20:20;;;;;;;7.05;4.40;;;;;;;;;;5104167;28;20123;-64
2022/01/15 04:22:47;;;;;;;11.93;5.53;;;;;;;;;;5071235;28;20080;-64
2022/01/15 04:25:13;;;;;;;9.35;5.32;;;;;;;;;;5070708;28;20127;-64
2022/01/15 04:27:40;;;;;;;10.52;5.22;;;;;;;;;;5031488;28;20041;-64
2022/01/15 04:30:08;;;;;;;8.05;4.75;;;;;;;;;;5031449;28;20045;-64
2022/01/15 04:32:34;;;;;;;8.77;5.20;;;;;;;;;;5030600;28;20103;-64
2022/01/15 04:35:00;;;;;;;7.90;4.38;;;;;;;;;;5031342;28;20054;-64
2022/01/15 04:37:35;;;;;;;9.60;5.03;;;;;;;;;;5031351;28;20045;-64
2022/01/15 04:40:02;;;;;;;9.75;5.10;;;;;;;;;;5030903;28;20050;-64
2022/01/15 04:42:29;;;;;;;8.98;5.35;;;;;;;;;;5031335;28;20052;-64
2022/01/15 04:44:56;;;;;;;10.13;5.28;;;;;;;;;;5030993;28;20507;-64
2022/01/15 04:47:22;;;;;;;8.27;4.88;;;;;;;;;;5030350;28;20053;-64
2022/01/15 04:49:48;;;;;;;10.30;5.40;;;;;;;;;;5031124;28;20076;-64
2022/01/15 04:52:14;;;;;;;11.25;5.82;;;;;;;;;;5031313;28;20038;-64
2022/01/15 04:54:40;;;;;;;11.20;6.32;;;;;;;;;;5030553;28;20041;-64
2022/01/15 04:57:06;;;;;;;12.18;6.10;;;;;;;;;;5031291;28;20103;-64
2022/01/15 04:59:32;;;;;;;11.80;6.25;;;;;;;;;;5033437;28;20107;-64
2022/01/15 05:01:58;;;;;;;9.43;5.63;;;;;;;;;;5032963;28;20041;-64
2022/01/15 05:04:24;;;;;;;11.18;6.28;;;;;;;;;;5033295;28;20049;-64
2022/01/15 05:06:50;;;;;;;11.95;5.68;;;;;;;;;;5034896;28;20746;-64
2022/01/15 05:09:16;;;;;;;11.25;5.50;;;;;;;;;;5034296;28;20029;-64
2022/01/15 05:14:12;;;;;;;9.65;5.15;;;;;;;;;;5034703;28;20045;-64
2022/01/15 05:16:38;;;;;;;13.38;5.50;;;;;;;;;;5032567;28;20073;-64
2022/01/15 05:19:04;;;;;;;11.23;6.20;;;;;;;;;;5034584;28;20075;-64
2022/01/15 05:21:31;;;;;;;10.05;5.05;;;;;;;;;;5034388;28;20046;-64
2022/01/15 05:23:57;;;;;;;11.52;4.85;;;;;;;;;;5033802;28;20496;-64
2022/01/15 05:26:23;;;;;;;10.45;5.13;;;;;;;;;;5052085;28;20048;-64
2022/01/15 05:28:49;;;;;;;10.48;5.13;;;;;;;;;;5074257;28;20040;-64
2022/01/15 05:31:15;;;;;;;9.68;5.35;;;;;;;;;;5073689;28;20041;-64
2022/01/15 05:33:41;;;;;;;8.48;4.78;;;;;;;;;;5074046;28;20395;-64
2022/01/15 05:36:07;;;;;;;8.13;5.35;;;;;;;;;;5074216;28;20052;-64
2022/01/15 05:38:33;;;;;;;8.65;5.13;;;;;;;;;;5073562;28;20045;-64
2022/01/15 05:40:59;;;;;;;11.57;5.70;;;;;;;;;;5074202;28;20048;-64
2022/01/15 05:43:25;;;;;;;9.25;5.43;;;;;;;;;;5073663;28;20048;-64
2022/01/15 05:45:51;;;;;;;10.90;5.45;;;;;;;;;;5073526;28;20037;-64
2022/01/15 05:48:17;;;;;;;8.50;4.70;;;;;;;;;;5073929;28;20052;-64
2022/01/15 05:50:44;;;;;;;11.60;6.03;;;;;;;;;;5074088;28;20044;-64
2022/01/15 05:53:10;;;;;;;11.18;5.47;;;;;;;;;;5106296;28;20044;-64
2022/01/15 05:55:36;;;;;;;10.50;5.88;;;;;;;;;;5105886;28;20383;-64
2022/01/15 05:58:02;;;;;;;10.15;5.60;;;;;;;;;;5073761;28;20140;-64
2022/01/15 06:00:28;;;;;;;12.25;6.00;;;;;;;;;;5073926;28;20033;-64
2022/01/15 06:02:54;;;;;;;10.07;5.75;;;;;;;;;;5072990;28;20080;-64
2022/01/15 06:05:20;;;;;;;11.23;5.47;;;;;;;;;;5073731;28;20041;-64
2022/01/15 06:07:46;;;;;;;10.13;5.80;;;;;;;;;;5073721;28;20033;-64
2022/01/15 06:10:12;;;;;;;9.60;5.35;;;;;;;;;;5072944;28;20524;-64
2022/01/15 06:12:43;;;;;;;8.52;5.20;;;;;;;;;;5105952;28;20406;-64
2022/01/15 06:15:10;;;;;;;11.15;5.25;;;;;;;;;;5073588;28;20120;-64
2022/01/15 06:17:36;;;;;;;8.63;5.07;;;;;;;;;;5072873;28;20076;-64
2022/01/15 06:20:03;;;;;;;8.68;5.15;;;;;;;;;;5105964;28;20053;-64
2022/01/15 06:22:29;;;;;;;9.07;4.68;;;;;;;;;;5073575;28;20433;-64
2022/01/15 06:24:55;;;;;;;7.85;4.70;;;;;;;;;;5072568;28;20044;-64
2022/01/15 06:27:21;;;;;;;12.18;5.32;;;;;;;;;;5072994;28;20048;-64
2022/01/15 06:29:47;;;;;;;8.52;5.03;;;;;;;;;;5073115;28;20119;-64
2022/01/15 06:32:13;;;;;;;8.13;4.95;;;;;;;;;;5072625;28;20064;-64
2022/01/15 06:34:39;;;;;;;10.18;4.95;;;;;;;;;;5072808;28;20475;-64
2022/01/15 06:37:06;;;;;;;10.38;4.63;;;;;;;;;;5073136;28;20044;-64
2022/01/15 06:39:35;;;;;;;8.85;5.28;;;;;;;;;;5072495;28;20047;-64
2022/01/15 06:42:01;;;;;;;8.70;4.32;;;;;;;;;;5071919;28;20056;-64
2022/01/15 06:44:28;;;;;;;7.75;4.55;;;;;;;;;;5072872;28;20044;-64
2022/01/15 06:46:54;;;;;;;7.57;4.72;;;;;;;;;;5072141;28;20047;-64
2022/01/15 06:49:21;;;;;;;6.88;4.25;;;;;;;;;;5071305;28;20041;-64
2022/01/15 06:51:47;;;;;;;6.55;4.35;;;;;;;;;;5072841;28;20041;-64
2022/01/15 06:54:13;;;;;;;9.13;4.68;;;;;;;;;;5072236;28;20043;-64
2022/01/15 06:56:39;;;;;;;7.55;4.40;;;;;;;;;;5072856;28;20490;-64
2022/01/15 06:59:05;;;;;;;9.40;4.78;;;;;;;;;;5072667;28;20045;-64
2022/01/15 07:01:31;;;;;;;7.43;4.10;;;;;;;;;;5072096;28;20352;-64
2022/01/15 07:03:57;;;;;;;7.78;5.07;;;;;;;;;;5070853;28;20044;-64
2022/01/15 07:06:23;;;;;;;9.90;5.63;;;;;;;;;;5072751;28;20043;-64
2022/01/15 07:08:49;;;;;;;7.70;4.93;;;;;;;;;;5071799;28;20115;-64
2022/01/15 07:11:15;;;;;;;8.18;5.28;;;;;;;;;;5071222;28;20136;-64
2022/01/15 07:13:41;;;;;;;7.07;4.55;;;;;;;;;;5072210;28;20051;-64
2022/01/15 07:16:07;;;;;;;8.20;4.88;;;;;;;;;;5071726;28;20456;-64
2022/01/15 07:18:34;;;;;;;6.97;4.28;;;;;;;;;;5071030;28;20055;-64
2022/01/15 07:21:00;;;;;;;7.63;4.78;;;;;;;;;;5070342;28;20044;-64
2022/01/15 07:23:26;;;;;;;7.97;4.90;;;;;;;;;;5071501;28;20083;-64
2022/01/15 07:25:52;;;;;;;7.43;4.50;;;;;;;;;;5070635;28;20056;-64
2022/01/15 07:28:19;;;;;;;6.80;4.35;;;;;;;;;;5104391;28;20041;-64
2022/01/15 07:30:45;;;;;;;7.45;4.38;;;;;;;;;;5071416;28;20115;-64
2022/01/15 07:33:12;;;;;;;6.97;4.25;;;;;;;;;;5071774;28;20044;-64
2022/01/15 07:35:38;;;;;;;7.28;4.65;;;;;;;;;;5072053;28;20082;-64
2022/01/15 07:38:04;;;;;;;8.60;4.88;;;;;;;;;;5071168;28;20071;-64
2022/01/15 07:40:30;;;;;;;8.82;4.38;;;;;;;;;;5071658;28;20423;-64
2022/01/15 07:42:57;;;;;;;9.98;5.03;;;;;;;;;;5104212;28;20068;-64
2022/01/15 07:45:23;;;;;;;9.32;5.85;;;;;;;;;;5070946;28;20049;-64
2022/01/15 07:47:49;;;;;;;8.35;5.22;;;;;;;;;;5071607;28;20135;-64
2022/01/15 07:50:17;;;;;;;8.13;5.07;;;;;;;;;;5071825;28;20123;-64
2022/01/15 07:52:43;;;;;;;8.88;4.72;;;;;;;;;;5070707;28;20044;-64
2022/01/15 07:55:10;;;;;;;10.00;5.10;;;;;;;;;;5071533;28;20121;-64
2022/01/15 07:57:36;;;;;;;9.15;5.68;;;;;;;;;;5071623;28;20047;-64
2022/01/15 08:00:03;;;;;;;9.10;5.25;;;;;;;;;;5103536;28;20051;-64
2022/01/15 08:02:28;;;;;;;9.35;5.18;;;;;;;;;;5071259;28;20045;-64
2022/01/15 08:04:54;;;;;;;8.30;5.05;;;;;;;;;;5071330;28;20029;-64
2022/01/15 08:07:20;;;;;;;8.73;5.22;;;;;;;;;;5071018;28;20037;-64
2022/01/15 08:09:47;;;;;;;9.63;5.65;;;;;;;;;;5104609;28;20047;-64
2022/01/15 08:12:13;;;;;;;10.40;5.97;;;;;;;;;;5071717;28;20119;-64
2022/01/15 08:14:39;;;;;;;10.63;6.15;;;;;;;;;;5070852;28;20043;-64
2022/01/15 08:17:05;;;;;;;10.48;6.22;;;;;;;;;;5071666;28;20386;-64
2022/01/15 08:19:31;;;;;;;9.43;5.90;;;;;;;;;;5071374;28;20040;-64
2022/01/15 08:21:58;;;;;;;9.00;5.50;;;;;;;;;;5103382;28;20483;-64
2022/01/15 08:24:24;;;;;;;9.90;5.70;;;;;;;;;;5103776;28;20055;-64
2022/01/15 08:26:51;;;;;;;10.20;6.10;;;;;;;;;;5057719;28;20053;-64
2022/01/15 08:29:18;;;;;;;10.45;5.43;;;;;;;;;;5050739;28;20033;-64
2022/01/15 08:31:44;;;;;;;10.05;6.15;;;;;;;;;;5051161;28;20361;-64
2022/01/15 08:34:10;;;;;;;9.32;5.50;;;;;;;;;;5053362;28;20103;-64
2022/01/15 08:36:37;;;;;;;8.85;5.75;;;;;;;;;;5054854;28;20484;-64
2022/01/15 08:39:04;;;;;;;9.43;5.78;;;;;;;;;;5055131;28;20418;-64
2022/01/15 08:41:30;;;;;;;9.88;5.75;;;;;;;;;;5055353;28;20507;-64
2022/01/15 08:43:56;;;;;;;10.85;6.63;;;;;;;;;;5054563;28;20056;-64
2022/01/15 08:46:23;;;;;;;12.50;7.22;;;;;;;;;;5055373;28;20094;-64
2022/01/15 08:48:49;;;;;;;13.02;7.88;;;;;;;;;;5055431;28;20033;-64
2022/01/15 08:51:15;;;;;;;13.52;8.15;;;;;;;;;;5054562;28;20450;-64
2022/01/15 08:53:41;;;;;;;14.77;7.70;;;;;;;;;;5054737;28;20191;-64
2022/01/15 08:56:08;;;;;;;16.70;8.05;;;;;;;;;;5054880;28;20119;-64
2022/01/15 08:58:34;;;;;;;15.00;8.50;;;;;;;;;;5054266;28;20048;-64
2022/01/15 09:01:00;;;;;;;16.05;9.05;;;;;;;;;;5055013;28;20090;-64
2022/01/15 09:03:26;;;;;;;13.95;7.75;;;;;;;;;;5054475;28;20037;-64
2022/01/15 09:05:52;;;;;;;18.20;8.25;;;;;;;;;;5054353;28;20052;-64
2022/01/15 09:08:24;;;;;;;14.15;8.20;;;;;;;;;;5054787;28;20076;-64
2022/01/15 09:10:50;;;;;;;13.93;7.97;;;;;;;;;;5053554;28;20041;-64
2022/01/15 09:13:16;;;;;;;14.48;7.65;;;;;;;;;;5052517;28;20110;-64
2022/01/15 09:15:42;;;;;;;14.65;6.88;;;;;;;;;;5054692;28;20053;-64
2022/01/15 09:18:08;;;;;;;14.32;7.57;;;;;;;;;;5054628;28;20044;-64
2022/01/15 09:20:34;;;;;;;14.50;7.15;;;;;;;;;;5052801;28;20122;-64
2022/01/15 09:23:01;;;;;;;12.00;7.03;;;;;;;;;;5054555;28;20048;-64
2022/01/15 09:25:27;;;;;;;12.55;7.57;;;;;;;;;;5054566;28;20045;-64
2022/01/15 09:30:39;;;;;;;12.88;7.53;;;;;;;;;;5074327;28;20472;-64
2022/01/15 09:33:06;;;;;;;14.15;8.05;;;;;;;;;;5073956;28;20090;-64
2022/01/15 09:35:32;;;;;;;15.65;8.90;;;;;;;;;;5073690;28;20830;-64
2022/01/15 09:37:58;;;;;;;15.35;8.85;;;;;;;;;;5072699;28;20395;-64
2022/01/15 09:40:26;;;;;;;14.63;8.00;;;;;;;;;;5074183;28;20090;-64
2022/01/15 09:42:52;;;;;;;17.45;9.45;;;;;;;;;;5073442;28;20051;-64
2022/01/15 09:45:19;;;;;;;19.08;9.25;;;;;;;;;;5073639;28;20094;-64
2022/01/15 09:47:46;;;;;;;15.82;8.82;;;;;;;;;;5074060;28;20032;-64
2022/01/15 09:50:13;;;;;;;17.50;9.23;;;;;;;;;;5073612;28;20040;-64
2022/01/15 09:52:40;;;;;;;18.42;10.13;;;;;;;;;;5074044;28;20036;-64
2022/01/15 09:55:07;;;;;;;18.60;9.82;;;;;;;;;;5073931;28;20036;-64
2022/01/15 09:57:34;;;;;;;17.60;9.77;;;;;;;;;;5105652;28;20045;-64
2022/01/15 10:00:01;;;;;;;17.90;9.55;;;;;;;;;;5106608;28;20474;-64
2022/01/15 10:02:27;;;;;;;19.63;9.80;;;;;;;;;;5073888;28;20068;-64
2022/01/15 10:04:53;;;;;;;17.95;10.63;;;;;;;;;;5073148;28;20085;-64
2022/01/15 10:07:22;;;;;;;18.65;9.45;;;;;;;;;;5073864;28;20068;-64
2022/01/15 10:09:49;;;;;;;18.65;9.73;;;;;;;;;;5073532;28;20045;-64
2022/01/15 10:12:35;;;;;;;17.63;9.63;;;;;;;;;;5105849;28;20048;-64
2022/01/15 10:15:03;;;;;;;18.30;9.43;;;;;;;;;;5073550;28;20056;-64
2022/01/15 10:17:33;;;;;;;19.17;10.45;;;;;;;;;;5073510;28;20128;-64
2022/01/15 10:20:00;;;;;;;18.88;9.80;;;;;;;;;;5072913;28;20143;-64
2022/01/15 10:22:28;;;;;;;17.50;9.57;;;;;;;;;;5106183;28;20091;-64
2022/01/15 10:25:06;;;;;;;17.35;9.10;;;;;;;;;;5073110;28;20671;-64
2022/01/15 10:27:34;;;;;;;15.23;8.68;;;;;;;;;;5085368;28;20136;-64
2022/01/15 10:30:01;;;;;;;17.25;8.98;;;;;;;;;;5053230;28;20471;-64
2022/01/15 10:32:29;;;;;;;15.63;7.93;;;;;;;;;;5052956;28;20541;-64
2022/01/15 10:34:56;;;;;;;13.45;8.50;;;;;;;;;;5052567;28;20052;-64
2022/01/15 10:37:23;;;;;;;16.35;7.88;;;;;;;;;;5053040;28;20045;-64
2022/01/15 10:40:01;;;;;;;13.63;7.68;;;;;;;;;;5053249;28;20041;-64
2022/01/15 10:42:27;;;;;;;13.52;8.02;;;;;;;;;;5051182;28;20063;-64
2022/01/15 10:44:54;;;;;;;13.80;8.32;;;;;;;;;;5052894;28;20124;-64
2022/01/15 10:47:22;;;;;;;13.18;8.20;;;;;;;;;;5053136;28;20036;-64
2022/01/15 10:49:49;;;;;;;13.65;8.00;;;;;;;;;;5052289;28;20656;-64
2022/01/15 10:52:17;;;;;;;12.93;7.85;;;;;;;;;;5052968;28;20043;-64
2022/01/15 10:54:54;;;;;;;14.75;8.85;;;;;;;;;;5052423;28;20045;-64
2022/01/15 10:57:22;;;;;;;12.60;8.38;;;;;;;;;;5051334;28;20361;-64
2022/01/15 11:00:06;;;;;;;16.38;9.02;;;;;;;;;;5052636;28;20041;-64
2022/01/15 11:02:32;;;;;;;15.55;9.10;;;;;;;;;;5052718;28;20041;-64
2022/01/15 11:04:58;;;;;;;15.48;9.52;;;;;;;;;;5052011;28;20041;-64
2022/01/15 11:07:24;;;;;;;16.70;9.80;;;;;;;;;;5052478;28;20037;-64
2022/01/15 11:09:51;;;;;;;20.00;11.73;;;;;;;;;;5052547;28;20545;-64
2022/01/15 11:12:18;;;;;;;17.02;10.82;;;;;;;;;;5051796;28;20123;-64
2022/01/15 11:14:44;;;;;;;16.95;10.13;;;;;;;;;;5052060;28;20048;-64
2022/01/15 11:17:10;;;;;;;19.63;10.93;;;;;;;;;;5052407;28;20380;-64
2022/01/15 11:19:36;;;;;;;18.63;10.75;;;;;;;;;;5050140;28;20159;-64
2022/01/15 11:22:04;;;;;;;15.30;9.75;;;;;;;;;;5051175;28;20535;-64
2022/01/15 11:24:30;;;;;;;16.70;10.48;;;;;;;;;;5052079;28;20049;-64
2022/01/15 11:26:58;;;;;;;18.33;11.45;;;;;;;;;;5065363;28;20060;-64
2022/01/15 11:29:25;;;;;;;19.83;11.30;;;;;;;;;;5071940;28;20094;-64
2022/01/15 11:31:53;;;;;;;19.80;11.15;;;;;;;;;;5072194;28;20115;-64
2022/01/15 11:34:20;;;;;;;19.75;10.90;;;;;;;;;;5071412;28;20044;-64
2022/01/15 11:36:47;;;;;;;18.20;11.80;;;;;;;;;;5072029;28;20050;-64
2022/01/15 11:39:14;;;;;;;17.77;10.98;;;;;;;;;;5071978;28;20054;-64
2022/01/15 11:41:41;;;;;;;22.02;11.10;;;;;;;;;;5071364;28;20495;-64
2022/01/15 11:44:12;;;;;;;19.33;11.38;;;;;;;;;;5104332;28;20673;-64
2022/01/15 11:46:38;;;;;;;19.85;11.43;;;;;;;;;;5071802;28;20051;-64
2022/01/15 11:49:23;;;;;;;22.42;12.50;;;;;;;;;;5071322;28;20037;-64
2022/01/15 11:51:49;;;;;;;20.95;11.93;;;;;;;;;;5104534;28;20080;-64
2022/01/15 11:54:15;;;;;;;17.52;10.10;;;;;;;;;;5071522;28;20049;-64
2022/01/15 11:56:46;;;;;;;20.38;11.60;;;;;;;;;;5071214;28;20475;-64
2022/01/15 11:59:24;;;;;;;19.48;12.73;;;;;;;;;;5071339;28;20121;-64
2022/01/15 12:01:52;;;;;;;19.77;13.05;;;;;;;;;;5071799;28;20040;-64
2022/01/15 12:04:24;;;;;;;18.42;11.25;;;;;;;;;;5070877;28;20398;-64
2022/01/15 12:07:06;;;;;;;18.38;11.05;;;;;;;;;;5104203;28;20040;-64
2022/01/15 12:09:35;;;;;;;18.30;10.30;;;;;;;;;;5071718;28;20098;-64
2022/01/15 12:12:02;;;;;;;17.77;10.18;;;;;;;;;;5070769;28;20037;-64
2022/01/15 12:14:47;;;;;;;18.38;10.93;;;;;;;;;;5104096;28;20051;-64
2022/01/15 12:17:26;;;;;;;18.20;10.48;;;;;;;;;;5071585;28;20040;-64
2022/01/15 12:19:53;;;;;;;19.02;10.40;;;;;;;;;;5070698;28;20036;-64
2022/01/15 12:22:34;;;;;;;16.70;9.85;;;;;;;;;;5070318;28;20072;-64
2022/01/15 12:25:01;;;;;;;18.70;11.27;;;;;;;;;;5071427;28;20150;-64
2022/01/15 12:27:28;;;;;;;18.17;11.38;;;;;;;;;;5051941;28;20057;-64
2022/01/15 12:29:59;;;;;;;18.50;10.63;;;;;;;;;;5051097;28;20382;-64
2022/01/15 12:32:29;;;;;;;19.67;10.93;;;;;;;;;;5049915;28;20041;-64
2022/01/15 12:34:56;;;;;;;18.45;11.27;;;;;;;;;;5050559;28;20425;-64
2022/01/15 12:37:22;;;;;;;22.73;11.32;;;;;;;;;;5051399;28;20259;-64
2022/01/15 12:39:49;;;;;;;18.92;10.82;;;;;;;;;;5051172;28;20099;-64
2022/01/15 12:42:17;;;;;;;18.17;11.00;;;;;;;;;;5050633;28;20047;-64
2022/01/15 12:44:46;;;;;;;20.55;11.45;;;;;;;;;;5049463;28;20045;-64
2022/01/15 12:47:12;;;;;;;23.08;12.13;;;;;;;;;;5050964;28;20084;-64
2022/01/15 12:49:39;;;;;;;22.52;12.13;;;;;;;;;;5050449;28;20037;-64
2022/01/15 12:52:09;;;;;;;22.92;13.02;;;;;;;;;;5051289;28;20053;-64
2022/01/15 12:54:35;;;;;;;24.88;13.23;;;;;;;;;;5051169;28;20047;-64
2022/01/15 12:57:01;;;;;;;22.98;12.90;;;;;;;;;;5050466;28;20081;-64
2022/01/15 12:59:27;;;;;;;22.33;11.80;;;;;;;;;;5049692;28;20057;-64
2022/01/15 13:01:53;;;;;;;25.27;14.00;;;;;;;;;;5051201;28;20123;-64
2022/01/15 13:04:20;;;;;;;22.40;12.68;;;;;;;;;;5050472;28;20368;-64
2022/01/15 13:06:50;;;;;;;21.48;11.90;;;;;;;;;;5051181;28;20416;-64
2022/01/15 13:09:17;;;;;;;22.10;13.05;;;;;;;;;;5051098;28;20036;-64
2022/01/15 13:11:48;;;;;;;24.17;13.52;;;;;;;;;;5049203;28;20476;-64
2022/01/15 13:14:15;;;;;;;21.80;11.93;;;;;;;;;;5050944;28;20040;-64
2022/01/15 13:16:41;;;;;;;26.58;13.80;;;;;;;;;;5050786;28;20139;-64
2022/01/15 13:19:07;;;;;;;23.65;12.45;;;;;;;;;;5050270;28;20045;-64
2022/01/15 13:21:34;;;;;;;25.15;13.23;;;;;;;;;;5054673;28;20090;-64
2022/01/15 13:24:02;;;;;;;28.98;14.35;;;;;;;;;;5054475;28;20052;-64
2022/01/15 13:26:28;;;;;;;28.50;14.82;;;;;;;;;;5062716;28;20424;-64
2022/01/15 13:28:55;;;;;;;23.75;13.95;;;;;;;;;;5074419;28;20119;-64
2022/01/15 13:31:26;;;;;;;23.17;12.85;;;;;;;;;;5074401;28;20115;-64
2022/01/15 13:33:52;;;;;;;24.00;13.93;;;;;;;;;;5073742;28;20086;-64
2022/01/15 13:36:19;;;;;;;21.48;13.10;;;;;;;;;;5074440;28;20053;-64
2022/01/15 13:38:46;;;;;;;24.08;13.75;;;;;;;;;;5073963;28;20032;-64
2022/01/15 13:41:14;;;;;;;21.75;12.30;;;;;;;;;;5073468;28;20051;-64
2022/01/15 13:43:41;;;;;;;25.45;13.55;;;;;;;;;;5074127;28;20037;-64
2022/01/15 13:46:10;;;;;;;26.85;14.50;;;;;;;;;;5074136;28;20086;-64
2022/01/15 13:48:37;;;;;;;24.35;13.80;;;;;;;;;;5072099;28;20044;-64
2022/01/15 13:53:57;;;;;;;26.25;13.95;;;;;;;;;;5074106;28;20110;-64
2022/01/15 13:56:28;;;;;;;22.00;13.20;;;;;;;;;;5073500;28;20047;-64
2022/01/15 13:58:58;;;;;;;23.83;13.88;;;;;;;;;;5072791;28;20105;-64
2022/01/15 14:01:27;;;;;;;26.17;14.68;;;;;;;;;;5106623;28;20539;-64
2022/01/15 14:03:53;;;;;;;25.00;13.90;;;;;;;;;;5105701;28;20044;-64
2022/01/15 14:06:20;;;;;;;27.67;14.52;;;;;;;;;;5073914;28;20047;-64
2022/01/15 14:08:46;;;;;;;30.98;15.43;;;;;;;;;;5073817;28;20121;-64
2022/01/15 14:11:14;;;;;;;27.95;14.90;;;;;;;;;;5072873;28;20110;-64
2022/01/15 14:13:40;;;;;;;26.05;14.52;;;;;;;;;;5072230;28;20082;-64
2022/01/15 14:16:23;;;;;;;25.90;14.48;;;;;;;;;;5073594;28;20445;-64
2022/01/15 14:19:02;;;;;;;28.77;15.20;;;;;;;;;;5071735;28;20410;-64
2022/01/15 14:23:58;;;;;;;29.67;14.73;;;;;;;;;;5072471;28;20084;-64
2022/01/15 14:26:25;;;;;;;30.05;15.57;;;;;;;;;;5063310;28;20765;-64
2022/01/15 14:28:52;;;;;;;29.63;15.45;;;;;;;;;;5053341;28;20037;-64
2022/01/15 14:31:19;;;;;;;29.15;15.27;;;;;;;;;;5051353;28;20037;-64
2022/01/15 14:33:49;;;;;;;28.63;14.35;;;;;;;;;;5051871;28;20051;-64
2022/01/15 14:36:16;;;;;;;29.60;15.05;;;;;;;;;;5051759;28;20132;-64
2022/01/15 14:38:42;;;;;;;31.17;14.65;;;;;;;;;;5052585;28;20041;-64
2022/01/15 14:41:09;;;;;;;29.58;14.77;;;;;;;;;;5052910;28;20542;-64
2022/01/15 14:43:36;;;;;;;28.92;15.30;;;;;;;;;;5053032;28;20071;-64
2022/01/15 14:46:02;;;;;;;28.23;15.25;;;;;;;;;;5052703;28;20043;-64
2022/01/15 14:48:29;;;;;;;30.67;15.07;;;;;;;;;;5052591;28;20041;-64
2022/01/15 14:50:55;;;;;;;26.67;15.77;;;;;;;;;;5051733;28;20041;-64
2022/01/15 14:53:21;;;;;;;29.10;16.05;;;;;;;;;;5051635;28;20484;-64
2022/01/15 14:55:47;;;;;;;29.15;15.88;;;;;;;;;;5052288;28;20514;-64
2022/01/15 14:58:13;;;;;;;29.83;16.60;;;;;;;;;;5052801;28;20041;-64